sensor_id;sensor_type;location;lat;lon;timestamp;temperature;humidity
27858;DHT22;16852;51.446;6.528;2023-07-20T00:01:44;20.50;99.90
27858;DHT22;16852;51.446;6.528;2023-07-20T00:03:45;20.40;99.90
27858;DHT22;16852;51.446;6.528;2023-07-20T00:05:55;20.50;99.90
27858;DHT22;16852;51.446;6.528;2023-07-20T00:07:55;20.50;99.90
27858;DHT22;16852;51.446;6.528;2023-07-20T00:09:57;20.50;99.90
27858;DHT22;16852;51.446;6.528;2023-07-20T00:11:57;20.50;99.90
27858;DHT22;16852;51.446;6.528;2023-07-20T00:14:00;20.50;99.90
27858;DHT22;16852;51.446;6.528;2023-07-20T00:16:01;20.40;99.90
27858;DHT22;16852;51.446;6.528;2023-07-20T00:18:01;20.40;99.90
27858;DHT22;16852;51.446;6.528;2023-07-20T00:20:02;20.40;99.90
27858;DHT22;16852;51.446;6.528;2023-07-20T00:22:05;20.40;99.90
27858;DHT22;16852;51.446;6.528;2023-07-20T00:24:06;20.40;99.90
27858;DHT22;16852;51.446;6.528;2023-07-20T00:26:06;20.40;99.90
27858;DHT22;16852;51.446;6.528;2023-07-20T00:28:07;20.40;99.90
27858;DHT22;16852;51.446;6.528;2023-07-20T00:30:08;20.50;99.90
27858;DHT22;16852;51.446;6.528;2023-07-20T00:32:09;20.50;99.90
27858;DHT22;16852;51.446;6.528;2023-07-20T00:34:09;20.40;99.90
27858;DHT22;16852;51.446;6.528;2023-07-20T00:36:10;20.50;99.90
27858;DHT22;16852;51.446;6.528;2023-07-20T00:38:10;20.50;99.90
27858;DHT22;16852;51.446;6.528;2023-07-20T00:40:12;20.50;99.90
27858;DHT22;16852;51.446;6.528;2023-07-20T00:42:12;20.50;99.90
27858;DHT22;16852;51.446;6.528;2023-07-20T00:44:13;20.50;99.90
27858;DHT22;16852;51.446;6.528;2023-07-20T00:46:14;20.40;99.90
27858;DHT22;16852;51.446;6.528;2023-07-20T00:48:14;20.50;99.90
27858;DHT22;16852;51.446;6.528;2023-07-20T00:50:15;20.40;99.90
27858;DHT22;16852;51.446;6.528;2023-07-20T00:52:17;20.40;99.90
27858;DHT22;16852;51.446;6.528;2023-07-20T00:54:19;20.40;99.90
27858;DHT22;16852;51.446;6.528;2023-07-20T00:56:19;20.40;99.90
27858;DHT22;16852;51.446;6.528;2023-07-20T00:58:20;20.30;99.90
27858;DHT22;16852;51.446;6.528;2023-07-20T01:00:21;20.30;99.90
27858;DHT22;16852;51.446;6.528;2023-07-20T01:02:21;20.30;99.90
27858;DHT22;16852;51.446;6.528;2023-07-20T01:04:22;20.20;99.90
27858;DHT22;16852;51.446;6.528;2023-07-20T01:06:44;20.20;99.90
27858;DHT22;16852;51.446;6.528;2023-07-20T01:13:40;19.90;99.90
27858;DHT22;16852;51.446;6.528;2023-07-20T01:15:41;20.00;99.90
27858;DHT22;16852;51.446;6.528;2023-07-20T01:17:42;19.90;99.90
27858;DHT22;16852;51.446;6.528;2023-07-20T01:19:42;19.90;99.90
27858;DHT22;16852;51.446;6.528;2023-07-20T01:21:55;19.80;99.90
27858;DHT22;16852;51.446;6.528;2023-07-20T01:32:58;19.60;99.90
27858;DHT22;16852;51.446;6.528;2023-07-20T01:34:59;19.50;99.90
27858;DHT22;16852;51.446;6.528;2023-07-20T01:37:02;19.50;99.90
27858;DHT22;16852;51.446;6.528;2023-07-20T01:39:04;19.50;99.90
27858;DHT22;16852;51.446;6.528;2023-07-20T01:41:06;19.40;99.90
27858;DHT22;16852;51.446;6.528;2023-07-20T01:43:07;19.50;99.90
27858;DHT22;16852;51.446;6.528;2023-07-20T01:45:08;19.40;99.90
27858;DHT22;16852;51.446;6.528;2023-07-20T01:47:08;19.50;99.90
27858;DHT22;16852;51.446;6.528;2023-07-20T01:49:09;19.50;99.90
27858;DHT22;16852;51.446;6.528;2023-07-20T01:51:10;19.40;99.90
27858;DHT22;16852;51.446;6.528;2023-07-20T01:53:10;19.40;99.90
27858;DHT22;16852;51.446;6.528;2023-07-20T01:55:11;19.40;99.90
27858;DHT22;16852;51.446;6.528;2023-07-20T01:57:12;19.40;99.90
27858;DHT22;16852;51.446;6.528;2023-07-20T01:59:12;19.50;99.90
27858;DHT22;16852;51.446;6.528;2023-07-20T02:01:13;19.50;99.90
27858;DHT22;16852;51.446;6.528;2023-07-20T02:03:14;19.50;99.90
27858;DHT22;16852;51.446;6.528;2023-07-20T02:05:14;19.50;99.90
27858;DHT22;16852;51.446;6.528;2023-07-20T02:07:15;19.50;99.90
27858;DHT22;16852;51.446;6.528;2023-07-20T02:09:15;19.50;99.90
27858;DHT22;16852;51.446;6.528;2023-07-20T02:11:16;19.50;99.90
27858;DHT22;16852;51.446;6.528;2023-07-20T02:13:17;19.60;99.90
27858;DHT22;16852;51.446;6.528;2023-07-20T02:15:17;19.60;99.90
27858;DHT22;16852;51.446;6.528;2023-07-20T02:17:19;19.60;99.90
27858;DHT22;16852;51.446;6.528;2023-07-20T02:19:20;19.60;99.90
27858;DHT22;16852;51.446;6.528;2023-07-20T02:21:21;19.60;99.90
27858;DHT22;16852;51.446;6.528;2023-07-20T02:23:22;19.60;99.90
27858;DHT22;16852;51.446;6.528;2023-07-20T02:25:22;19.60;99.90
27858;DHT22;16852;51.446;6.528;2023-07-20T02:27:23;19.60;99.90
27858;DHT22;16852;51.446;6.528;2023-07-20T02:29:23;19.60;99.90
27858;DHT22;16852;51.446;6.528;2023-07-20T02:31:24;19.70;99.90
27858;DHT22;16852;51.446;6.528;2023-07-20T02:33:25;19.70;99.90
27858;DHT22;16852;51.446;6.528;2023-07-20T02:35:25;19.70;99.90
27858;DHT22;16852;51.446;6.528;2023-07-20T02:37:26;19.70;99.90
27858;DHT22;16852;51.446;6.528;2023-07-20T02:39:27;19.70;99.90
27858;DHT22;16852;51.446;6.528;2023-07-20T02:41:28;19.80;99.90
27858;DHT22;16852;51.446;6.528;2023-07-20T02:43:28;19.80;99.90
27858;DHT22;16852;51.446;6.528;2023-07-20T02:45:29;19.80;99.90
27858;DHT22;16852;51.446;6.528;2023-07-20T02:47:31;19.80;99.90
27858;DHT22;16852;51.446;6.528;2023-07-20T02:49:32;19.80;99.90
27858;DHT22;16852;51.446;6.528;2023-07-20T02:51:33;19.90;99.90
27858;DHT22;16852;51.446;6.528;2023-07-20T02:53:33;19.80;99.90
27858;DHT22;16852;51.446;6.528;2023-07-20T02:55:34;19.80;99.90
27858;DHT22;16852;51.446;6.528;2023-07-20T02:57:35;19.80;99.90
27858;DHT22;16852;51.446;6.528;2023-07-20T02:59:35;19.70;99.90
27858;DHT22;16852;51.446;6.528;2023-07-20T03:01:36;19.80;99.90
27858;DHT22;16852;51.446;6.528;2023-07-20T03:03:37;19.80;99.90
27858;DHT22;16852;51.446;6.528;2023-07-20T03:05:41;19.70;99.90
27858;DHT22;16852;51.446;6.528;2023-07-20T03:07:41;19.70;99.90
27858;DHT22;16852;51.446;6.528;2023-07-20T03:09:43;19.70;99.90
27858;DHT22;16852;51.446;6.528;2023-07-20T03:11:44;19.70;99.90
27858;DHT22;16852;51.446;6.528;2023-07-20T03:13:45;19.70;99.90
27858;DHT22;16852;51.446;6.528;2023-07-20T03:15:46;19.70;99.90
27858;DHT22;16852;51.446;6.528;2023-07-20T03:17:47;19.60;99.90
27858;DHT22;16852;51.446;6.528;2023-07-20T03:19:47;19.60;99.90
27858;DHT22;16852;51.446;6.528;2023-07-20T03:21:48;19.60;99.90
27858;DHT22;16852;51.446;6.528;2023-07-20T03:23:48;19.60;99.90
27858;DHT22;16852;51.446;6.528;2023-07-20T03:25:49;19.50;99.90
27858;DHT22;16852;51.446;6.528;2023-07-20T03:27:50;19.50;99.90
27858;DHT22;16852;51.446;6.528;2023-07-20T03:29:50;19.40;99.90
27858;DHT22;16852;51.446;6.528;2023-07-20T03:31:51;19.50;99.90
27858;DHT22;16852;51.446;6.528;2023-07-20T03:33:52;19.40;99.90
27858;DHT22;16852;51.446;6.528;2023-07-20T03:35:52;19.30;99.90
27858;DHT22;16852;51.446;6.528;2023-07-20T03:37:53;19.30;99.90
27858;DHT22;16852;51.446;6.528;2023-07-20T03:39:54;19.20;99.90
27858;DHT22;16852;51.446;6.528;2023-07-20T03:41:54;19.20;99.90
27858;DHT22;16852;51.446;6.528;2023-07-20T03:43:55;19.20;99.90
27858;DHT22;16852;51.446;6.528;2023-07-20T03:45:56;19.20;99.90
27858;DHT22;16852;51.446;6.528;2023-07-20T03:47:57;19.20;99.90
27858;DHT22;16852;51.446;6.528;2023-07-20T03:49:58;19.20;99.90
27858;DHT22;16852;51.446;6.528;2023-07-20T03:51:58;19.20;99.90
27858;DHT22;16852;51.446;6.528;2023-07-20T03:53:59;19.20;99.90
27858;DHT22;16852;51.446;6.528;2023-07-20T03:56:00;19.20;99.90
27858;DHT22;16852;51.446;6.528;2023-07-20T03:58:00;19.20;99.90
27858;DHT22;16852;51.446;6.528;2023-07-20T04:00:02;19.20;99.90
27858;DHT22;16852;51.446;6.528;2023-07-20T04:02:04;19.20;99.90
27858;DHT22;16852;51.446;6.528;2023-07-20T04:04:07;19.20;99.90
27858;DHT22;16852;51.446;6.528;2023-07-20T04:06:08;19.20;99.90
27858;DHT22;16852;51.446;6.528;2023-07-20T04:08:09;19.20;99.90
27858;DHT22;16852;51.446;6.528;2023-07-20T04:10:11;19.20;99.90
27858;DHT22;16852;51.446;6.528;2023-07-20T04:12:12;19.20;99.90
27858;DHT22;16852;51.446;6.528;2023-07-20T04:14:12;19.20;99.90
27858;DHT22;16852;51.446;6.528;2023-07-20T04:16:13;19.20;99.90
27858;DHT22;16852;51.446;6.528;2023-07-20T04:18:14;19.20;99.90
27858;DHT22;16852;51.446;6.528;2023-07-20T04:20:14;19.20;99.90
27858;DHT22;16852;51.446;6.528;2023-07-20T04:22:15;19.30;99.90
27858;DHT22;16852;51.446;6.528;2023-07-20T04:24:15;19.30;99.90
27858;DHT22;16852;51.446;6.528;2023-07-20T04:26:16;19.30;99.90
27858;DHT22;16852;51.446;6.528;2023-07-20T04:28:17;19.30;99.90
27858;DHT22;16852;51.446;6.528;2023-07-20T04:30:18;19.30;99.90
27858;DHT22;16852;51.446;6.528;2023-07-20T04:32:21;19.30;99.90
27858;DHT22;16852;51.446;6.528;2023-07-20T04:34:21;19.30;99.90
27858;DHT22;16852;51.446;6.528;2023-07-20T04:36:22;19.30;99.90
27858;DHT22;16852;51.446;6.528;2023-07-20T04:38:23;19.30;99.90
27858;DHT22;16852;51.446;6.528;2023-07-20T04:40:24;19.40;99.90
27858;DHT22;16852;51.446;6.528;2023-07-20T04:42:24;19.40;99.90
27858;DHT22;16852;51.446;6.528;2023-07-20T04:44:25;19.30;99.90
27858;DHT22;16852;51.446;6.528;2023-07-20T04:46:26;19.40;99.90
27858;DHT22;16852;51.446;6.528;2023-07-20T04:48:26;19.40;99.90
27858;DHT22;16852;51.446;6.528;2023-07-20T04:50:27;19.40;99.90
27858;DHT22;16852;51.446;6.528;2023-07-20T04:52:28;19.30;99.90
27858;DHT22;16852;51.446;6.528;2023-07-20T04:54:28;19.40;99.90
27858;DHT22;16852;51.446;6.528;2023-07-20T04:56:29;19.30;99.90
27858;DHT22;16852;51.446;6.528;2023-07-20T04:58:29;19.30;99.90
27858;DHT22;16852;51.446;6.528;2023-07-20T05:00:31;19.30;99.90
27858;DHT22;16852;51.446;6.528;2023-07-20T05:02:32;19.30;99.90
27858;DHT22;16852;51.446;6.528;2023-07-20T05:04:32;19.30;99.90
27858;DHT22;16852;51.446;6.528;2023-07-20T05:06:33;19.30;99.90
27858;DHT22;16852;51.446;6.528;2023-07-20T05:08:34;19.30;99.90
27858;DHT22;16852;51.446;6.528;2023-07-20T05:10:35;19.30;99.90
27858;DHT22;16852;51.446;6.528;2023-07-20T05:12:35;19.30;99.90
27858;DHT22;16852;51.446;6.528;2023-07-20T05:14:36;19.20;99.90
27858;DHT22;16852;51.446;6.528;2023-07-20T05:16:37;19.20;99.90
27858;DHT22;16852;51.446;6.528;2023-07-20T05:18:37;19.20;99.90
27858;DHT22;16852;51.446;6.528;2023-07-20T05:20:38;19.20;99.90
27858;DHT22;16852;51.446;6.528;2023-07-20T05:22:38;19.20;99.90
27858;DHT22;16852;51.446;6.528;2023-07-20T05:24:40;19.20;99.90
27858;DHT22;16852;51.446;6.528;2023-07-20T05:26:40;19.30;99.90
27858;DHT22;16852;51.446;6.528;2023-07-20T05:28:41;19.20;99.90
27858;DHT22;16852;51.446;6.528;2023-07-20T05:30:41;19.20;99.90
27858;DHT22;16852;51.446;6.528;2023-07-20T05:32:42;19.20;99.90
27858;DHT22;16852;51.446;6.528;2023-07-20T05:34:42;19.10;99.90
27858;DHT22;16852;51.446;6.528;2023-07-20T05:36:43;19.10;99.90
27858;DHT22;16852;51.446;6.528;2023-07-20T05:38:44;19.10;99.90
27858;DHT22;16852;51.446;6.528;2023-07-20T05:40:44;19.10;99.90
27858;DHT22;16852;51.446;6.528;2023-07-20T05:42:45;19.10;99.90
27858;DHT22;16852;51.446;6.528;2023-07-20T05:44:52;19.20;99.90
27858;DHT22;16852;51.446;6.528;2023-07-20T05:46:53;19.20;99.90
27858;DHT22;16852;51.446;6.528;2023-07-20T05:48:53;19.20;99.90
27858;DHT22;16852;51.446;6.528;2023-07-20T05:50:54;19.20;99.90
27858;DHT22;16852;51.446;6.528;2023-07-20T05:52:55;19.20;99.90
27858;DHT22;16852;51.446;6.528;2023-07-20T05:54:55;19.30;99.90
27858;DHT22;16852;51.446;6.528;2023-07-20T05:56:56;19.30;99.90
27858;DHT22;16852;51.446;6.528;2023-07-20T05:58:56;19.30;99.90
27858;DHT22;16852;51.446;6.528;2023-07-20T06:00:57;19.30;99.90
27858;DHT22;16852;51.446;6.528;2023-07-20T06:02:58;19.30;99.90
27858;DHT22;16852;51.446;6.528;2023-07-20T06:04:59;19.30;99.90
27858;DHT22;16852;51.446;6.528;2023-07-20T06:06:59;19.30;99.90
27858;DHT22;16852;51.446;6.528;2023-07-20T06:09:00;19.50;99.90
27858;DHT22;16852;51.446;6.528;2023-07-20T06:11:04;19.50;99.90
27858;DHT22;16852;51.446;6.528;2023-07-20T06:13:05;19.60;99.90
27858;DHT22;16852;51.446;6.528;2023-07-20T06:15:12;19.70;99.90
27858;DHT22;16852;51.446;6.528;2023-07-20T06:17:24;19.70;99.90
27858;DHT22;16852;51.446;6.528;2023-07-20T06:19:24;19.70;99.90
27858;DHT22;16852;51.446;6.528;2023-07-20T06:21:25;19.70;99.90
27858;DHT22;16852;51.446;6.528;2023-07-20T06:23:25;19.70;99.90
27858;DHT22;16852;51.446;6.528;2023-07-20T06:25:26;19.80;99.90
27858;DHT22;16852;51.446;6.528;2023-07-20T06:27:26;19.90;99.90
27858;DHT22;16852;51.446;6.528;2023-07-20T06:29:27;20.00;99.90
27858;DHT22;16852;51.446;6.528;2023-07-20T06:31:28;20.10;99.90
27858;DHT22;16852;51.446;6.528;2023-07-20T06:33:28;20.20;99.90
27858;DHT22;16852;51.446;6.528;2023-07-20T06:35:29;20.40;99.90
27858;DHT22;16852;51.446;6.528;2023-07-20T06:37:29;20.60;99.90
27858;DHT22;16852;51.446;6.528;2023-07-20T06:39:30;20.80;99.90
27858;DHT22;16852;51.446;6.528;2023-07-20T06:41:31;21.20;99.90
27858;DHT22;16852;51.446;6.528;2023-07-20T06:43:31;21.50;99.90
27858;DHT22;16852;51.446;6.528;2023-07-20T06:45:32;21.80;99.90
27858;DHT22;16852;51.446;6.528;2023-07-20T06:47:32;22.10;99.90
27858;DHT22;16852;51.446;6.528;2023-07-20T06:49:33;22.30;99.90
27858;DHT22;16852;51.446;6.528;2023-07-20T06:51:33;22.50;99.90
27858;DHT22;16852;51.446;6.528;2023-07-20T06:53:34;22.70;99.90
27858;DHT22;16852;51.446;6.528;2023-07-20T06:55:35;22.80;99.90
27858;DHT22;16852;51.446;6.528;2023-07-20T06:57:36;22.90;99.90
27858;DHT22;16852;51.446;6.528;2023-07-20T06:59:36;23.10;99.90
27858;DHT22;16852;51.446;6.528;2023-07-20T07:01:37;23.10;99.90
27858;DHT22;16852;51.446;6.528;2023-07-20T07:03:37;23.00;99.90
27858;DHT22;16852;51.446;6.528;2023-07-20T07:05:38;22.90;99.90
27858;DHT22;16852;51.446;6.528;2023-07-20T07:07:39;22.90;99.90
27858;DHT22;16852;51.446;6.528;2023-07-20T07:09:39;22.80;99.90
27858;DHT22;16852;51.446;6.528;2023-07-20T07:11:40;22.80;99.90
27858;DHT22;16852;51.446;6.528;2023-07-20T07:13:41;22.70;99.90
27858;DHT22;16852;51.446;6.528;2023-07-20T07:15:42;22.70;99.90
27858;DHT22;16852;51.446;6.528;2023-07-20T07:17:42;22.60;99.90
27858;DHT22;16852;51.446;6.528;2023-07-20T07:19:44;22.60;99.90
27858;DHT22;16852;51.446;6.528;2023-07-20T07:21:44;22.50;99.90
27858;DHT22;16852;51.446;6.528;2023-07-20T07:23:46;22.50;99.90
27858;DHT22;16852;51.446;6.528;2023-07-20T07:25:46;22.50;99.90
27858;DHT22;16852;51.446;6.528;2023-07-20T07:27:48;22.60;99.90
27858;DHT22;16852;51.446;6.528;2023-07-20T07:29:48;22.60;99.90
27858;DHT22;16852;51.446;6.528;2023-07-20T07:31:49;22.70;99.90
27858;DHT22;16852;51.446;6.528;2023-07-20T07:33:50;22.70;99.90
27858;DHT22;16852;51.446;6.528;2023-07-20T07:35:51;22.80;99.90
27858;DHT22;16852;51.446;6.528;2023-07-20T07:37:52;22.90;99.90
27858;DHT22;16852;51.446;6.528;2023-07-20T07:39:53;23.00;99.90
27858;DHT22;16852;51.446;6.528;2023-07-20T07:41:53;23.10;99.90
27858;DHT22;16852;51.446;6.528;2023-07-20T07:43:54;23.10;99.90
27858;DHT22;16852;51.446;6.528;2023-07-20T07:45:55;23.20;99.90
27858;DHT22;16852;51.446;6.528;2023-07-20T07:47:56;23.10;99.90
27858;DHT22;16852;51.446;6.528;2023-07-20T07:49:56;23.10;99.90
27858;DHT22;16852;51.446;6.528;2023-07-20T07:51:57;23.00;99.90
27858;DHT22;16852;51.446;6.528;2023-07-20T07:53:58;23.10;99.90
27858;DHT22;16852;51.446;6.528;2023-07-20T07:55:59;23.10;99.90
27858;DHT22;16852;51.446;6.528;2023-07-20T07:57:59;23.10;99.90
27858;DHT22;16852;51.446;6.528;2023-07-20T08:00:00;23.00;99.90
27858;DHT22;16852;51.446;6.528;2023-07-20T08:02:01;23.00;99.90
27858;DHT22;16852;51.446;6.528;2023-07-20T08:04:02;22.90;99.90
27858;DHT22;16852;51.446;6.528;2023-07-20T08:06:04;22.90;99.90
27858;DHT22;16852;51.446;6.528;2023-07-20T08:08:05;22.80;99.90
27858;DHT22;16852;51.446;6.528;2023-07-20T08:10:06;22.60;99.90
27858;DHT22;16852;51.446;6.528;2023-07-20T08:12:07;22.60;99.90
27858;DHT22;16852;51.446;6.528;2023-07-20T08:14:07;22.50;99.90
27858;DHT22;16852;51.446;6.528;2023-07-20T08:16:08;22.50;99.90
27858;DHT22;16852;51.446;6.528;2023-07-20T08:18:09;22.40;99.90
27858;DHT22;16852;51.446;6.528;2023-07-20T08:20:11;22.30;99.90
27858;DHT22;16852;51.446;6.528;2023-07-20T08:22:12;22.30;99.90
27858;DHT22;16852;51.446;6.528;2023-07-20T08:24:13;22.30;99.90
27858;DHT22;16852;51.446;6.528;2023-07-20T08:26:14;22.40;99.90
27858;DHT22;16852;51.446;6.528;2023-07-20T08:28:15;22.50;99.90
27858;DHT22;16852;51.446;6.528;2023-07-20T08:30:16;22.50;99.90
27858;DHT22;16852;51.446;6.528;2023-07-20T08:32:17;22.60;99.90
27858;DHT22;16852;51.446;6.528;2023-07-20T08:34:18;22.70;99.90
27858;DHT22;16852;51.446;6.528;2023-07-20T08:36:18;22.80;99.90
27858;DHT22;16852;51.446;6.528;2023-07-20T08:38:19;22.90;99.90
27858;DHT22;16852;51.446;6.528;2023-07-20T08:40:20;23.00;99.90
27858;DHT22;16852;51.446;6.528;2023-07-20T08:42:21;23.10;99.90
27858;DHT22;16852;51.446;6.528;2023-07-20T08:44:24;23.20;99.90
27858;DHT22;16852;51.446;6.528;2023-07-20T08:46:26;23.20;99.90
27858;DHT22;16852;51.446;6.528;2023-07-20T08:48:30;23.30;99.90
27858;DHT22;16852;51.446;6.528;2023-07-20T08:50:31;23.30;99.90
27858;DHT22;16852;51.446;6.528;2023-07-20T08:52:34;23.30;99.90
27858;DHT22;16852;51.446;6.528;2023-07-20T08:54:34;23.30;99.90
27858;DHT22;16852;51.446;6.528;2023-07-20T08:56:36;23.30;99.90
27858;DHT22;16852;51.446;6.528;2023-07-20T08:58:39;23.30;99.90
27858;DHT22;16852;51.446;6.528;2023-07-20T09:00:41;23.20;99.90
27858;DHT22;16852;51.446;6.528;2023-07-20T09:02:42;23.20;99.90
27858;DHT22;16852;51.446;6.528;2023-07-20T09:04:45;23.30;99.90
27858;DHT22;16852;51.446;6.528;2023-07-20T09:06:45;23.30;99.90
27858;DHT22;16852;51.446;6.528;2023-07-20T09:08:47;23.40;99.90
27858;DHT22;16852;51.446;6.528;2023-07-20T09:10:48;23.40;99.90
27858;DHT22;16852;51.446;6.528;2023-07-20T09:12:48;23.50;99.90
27858;DHT22;16852;51.446;6.528;2023-07-20T09:14:49;23.50;99.90
27858;DHT22;16852;51.446;6.528;2023-07-20T09:16:54;23.60;99.90
27858;DHT22;16852;51.446;6.528;2023-07-20T09:18:58;23.70;99.90
27858;DHT22;16852;51.446;6.528;2023-07-20T09:21:02;23.80;99.90
27858;DHT22;16852;51.446;6.528;2023-07-20T09:23:06;23.80;99.90
27858;DHT22;16852;51.446;6.528;2023-07-20T09:25:17;23.90;99.90
27858;DHT22;16852;51.446;6.528;2023-07-20T09:27:19;23.90;99.90
27858;DHT22;16852;51.446;6.528;2023-07-20T09:29:20;23.90;99.60
27858;DHT22;16852;51.446;6.528;2023-07-20T09:31:22;23.90;99.30
27858;DHT22;16852;51.446;6.528;2023-07-20T09:33:23;24.00;99.90
27858;DHT22;16852;51.446;6.528;2023-07-20T09:35:24;24.00;99.90
27858;DHT22;16852;51.446;6.528;2023-07-20T09:37:24;24.10;99.90
27858;DHT22;16852;51.446;6.528;2023-07-20T09:39:25;24.10;99.90
27858;DHT22;16852;51.446;6.528;2023-07-20T09:41:26;24.10;99.90
27858;DHT22;16852;51.446;6.528;2023-07-20T09:43:28;24.10;99.90
27858;DHT22;16852;51.446;6.528;2023-07-20T09:45:33;24.10;99.90
27858;DHT22;16852;51.446;6.528;2023-07-20T09:47:36;24.10;99.90
27858;DHT22;16852;51.446;6.528;2023-07-20T09:49:41;24.10;99.90
27858;DHT22;16852;51.446;6.528;2023-07-20T09:51:42;24.10;99.90
27858;DHT22;16852;51.446;6.528;2023-07-20T09:53:44;24.10;99.90
27858;DHT22;16852;51.446;6.528;2023-07-20T09:55:47;23.80;96.70
27858;DHT22;16852;51.446;6.528;2023-07-20T09:57:48;23.90;99.90
27858;DHT22;16852;51.446;6.528;2023-07-20T09:59:49;23.90;99.80
27858;DHT22;16852;51.446;6.528;2023-07-20T10:01:50;24.10;99.90
27858;DHT22;16852;51.446;6.528;2023-07-20T10:03:54;24.10;99.90
27858;DHT22;16852;51.446;6.528;2023-07-20T10:06:05;24.10;99.90
27858;DHT22;16852;51.446;6.528;2023-07-20T10:08:11;24.20;97.90
27858;DHT22;16852;51.446;6.528;2023-07-20T10:10:14;24.20;98.20
27858;DHT22;16852;51.446;6.528;2023-07-20T10:12:15;24.30;97.20
27858;DHT22;16852;51.446;6.528;2023-07-20T10:14:19;24.40;99.90
27858;DHT22;16852;51.446;6.528;2023-07-20T10:16:33;24.40;99.90
27858;DHT22;16852;51.446;6.528;2023-07-20T10:18:50;24.50;99.40
27858;DHT22;16852;51.446;6.528;2023-07-20T10:20:53;24.60;99.60
27858;DHT22;16852;51.446;6.528;2023-07-20T10:22:54;24.60;99.70
27858;DHT22;16852;51.446;6.528;2023-07-20T10:24:56;24.60;98.60
27858;DHT22;16852;51.446;6.528;2023-07-20T10:26:59;24.50;98.50
27858;DHT22;16852;51.446;6.528;2023-07-20T10:29:00;24.50;96.00
27858;DHT22;16852;51.446;6.528;2023-07-20T10:31:01;24.50;98.10
27858;DHT22;16852;51.446;6.528;2023-07-20T10:33:03;24.50;99.30
27858;DHT22;16852;51.446;6.528;2023-07-20T10:35:15;24.40;95.60
27858;DHT22;16852;51.446;6.528;2023-07-20T10:37:45;24.40;96.90
27858;DHT22;16852;51.446;6.528;2023-07-20T10:39:46;24.40;97.10
27858;DHT22;16852;51.446;6.528;2023-07-20T10:41:47;24.40;96.30
27858;DHT22;16852;51.446;6.528;2023-07-20T10:43:48;24.50;94.70
27858;DHT22;16852;51.446;6.528;2023-07-20T10:45:51;24.40;93.60
27858;DHT22;16852;51.446;6.528;2023-07-20T10:47:55;24.40;95.70
27858;DHT22;16852;51.446;6.528;2023-07-20T10:50:01;24.40;98.30
27858;DHT22;16852;51.446;6.528;2023-07-20T10:52:05;24.50;97.60
27858;DHT22;16852;51.446;6.528;2023-07-20T10:56:21;24.60;97.60
27858;DHT22;16852;51.446;6.528;2023-07-20T10:58:21;24.70;98.70
27858;DHT22;16852;51.446;6.528;2023-07-20T11:00:29;24.70;94.40
27858;DHT22;16852;51.446;6.528;2023-07-20T11:02:50;24.80;96.10
27858;DHT22;16852;51.446;6.528;2023-07-20T11:04:59;24.80;93.90
27858;DHT22;16852;51.446;6.528;2023-07-20T11:06:59;24.80;93.50
27858;DHT22;16852;51.446;6.528;2023-07-20T11:09:13;24.90;92.90
27858;DHT22;16852;51.446;6.528;2023-07-20T11:13:26;24.90;95.20
27858;DHT22;16852;51.446;6.528;2023-07-20T11:15:27;25.00;95.10
27858;DHT22;16852;51.446;6.528;2023-07-20T11:17:39;25.00;96.00
27858;DHT22;16852;51.446;6.528;2023-07-20T11:19:40;25.10;95.20
27858;DHT22;16852;51.446;6.528;2023-07-20T11:21:43;25.10;92.40
27858;DHT22;16852;51.446;6.528;2023-07-20T11:23:43;25.10;91.80
27858;DHT22;16852;51.446;6.528;2023-07-20T11:25:45;25.20;93.40
27858;DHT22;16852;51.446;6.528;2023-07-20T11:27:46;25.30;94.90
27858;DHT22;16852;51.446;6.528;2023-07-20T11:29:48;25.30;94.30
27858;DHT22;16852;51.446;6.528;2023-07-20T11:31:50;25.30;94.50
27858;DHT22;16852;51.446;6.528;2023-07-20T11:33:50;25.30;92.10
27858;DHT22;16852;51.446;6.528;2023-07-20T11:35:51;25.30;94.00
27858;DHT22;16852;51.446;6.528;2023-07-20T11:37:51;25.30;95.00
27858;DHT22;16852;51.446;6.528;2023-07-20T11:39:56;25.40;95.10
27858;DHT22;16852;51.446;6.528;2023-07-20T11:41:57;25.40;95.80
27858;DHT22;16852;51.446;6.528;2023-07-20T11:43:58;25.40;95.30
27858;DHT22;16852;51.446;6.528;2023-07-20T11:45:59;25.40;92.60
27858;DHT22;16852;51.446;6.528;2023-07-20T11:48:01;25.40;94.00
27858;DHT22;16852;51.446;6.528;2023-07-20T11:50:05;25.40;92.20
27858;DHT22;16852;51.446;6.528;2023-07-20T11:52:07;25.40;92.40
27858;DHT22;16852;51.446;6.528;2023-07-20T11:54:09;25.40;91.70
27858;DHT22;16852;51.446;6.528;2023-07-20T11:56:10;25.30;93.50
27858;DHT22;16852;51.446;6.528;2023-07-20T11:58:11;25.30;94.30
27858;DHT22;16852;51.446;6.528;2023-07-20T12:00:12;25.20;93.40
27858;DHT22;16852;51.446;6.528;2023-07-20T12:02:12;25.10;94.60
27858;DHT22;16852;51.446;6.528;2023-07-20T12:04:13;25.20;95.40
27858;DHT22;16852;51.446;6.528;2023-07-20T12:06:14;25.10;94.00
27858;DHT22;16852;51.446;6.528;2023-07-20T12:08:15;25.10;94.50
27858;DHT22;16852;51.446;6.528;2023-07-20T12:10:15;25.10;95.00
27858;DHT22;16852;51.446;6.528;2023-07-20T12:12:16;25.00;93.50
27858;DHT22;16852;51.446;6.528;2023-07-20T12:14:18;25.00;93.70
27858;DHT22;16852;51.446;6.528;2023-07-20T12:16:20;25.00;92.90
27858;DHT22;16852;51.446;6.528;2023-07-20T12:18:22;24.90;94.80
27858;DHT22;16852;51.446;6.528;2023-07-20T12:20:36;24.90;93.80
27858;DHT22;16852;51.446;6.528;2023-07-20T12:22:43;24.90;91.10
27858;DHT22;16852;51.446;6.528;2023-07-20T12:24:43;25.00;93.60
27858;DHT22;16852;51.446;6.528;2023-07-20T12:26:44;25.00;95.20
27858;DHT22;16852;51.446;6.528;2023-07-20T12:28:45;25.00;91.40
27858;DHT22;16852;51.446;6.528;2023-07-20T12:30:46;25.00;90.40
27858;DHT22;16852;51.446;6.528;2023-07-20T12:32:48;25.00;92.80
27858;DHT22;16852;51.446;6.528;2023-07-20T12:34:48;25.00;94.00
27858;DHT22;16852;51.446;6.528;2023-07-20T12:36:49;25.00;91.60
27858;DHT22;16852;51.446;6.528;2023-07-20T12:38:50;25.00;93.60
27858;DHT22;16852;51.446;6.528;2023-07-20T12:40:51;25.10;96.80
27858;DHT22;16852;51.446;6.528;2023-07-20T12:42:52;25.10;94.40
27858;DHT22;16852;51.446;6.528;2023-07-20T12:44:52;25.10;92.60
27858;DHT22;16852;51.446;6.528;2023-07-20T12:46:56;25.10;92.40
27858;DHT22;16852;51.446;6.528;2023-07-20T12:48:56;25.20;91.40
27858;DHT22;16852;51.446;6.528;2023-07-20T12:50:57;25.20;91.30
27858;DHT22;16852;51.446;6.528;2023-07-20T12:52:58;25.20;91.90
27858;DHT22;16852;51.446;6.528;2023-07-20T12:54:59;25.20;92.90
27858;DHT22;16852;51.446;6.528;2023-07-20T12:57:01;25.30;92.00
27858;DHT22;16852;51.446;6.528;2023-07-20T12:59:03;25.30;92.80
27858;DHT22;16852;51.446;6.528;2023-07-20T13:01:06;25.40;90.00
27858;DHT22;16852;51.446;6.528;2023-07-20T13:03:07;25.30;88.70
27858;DHT22;16852;51.446;6.528;2023-07-20T13:05:09;25.30;91.20
27858;DHT22;16852;51.446;6.528;2023-07-20T13:07:10;25.20;88.40